createdAt,value
2019-04-06T00:01:53.916Z,43.23
2019-04-06T00:07:02.227Z,42.18
2019-04-06T00:12:11.201Z,41.11
2019-04-06T00:17:19.806Z,40.72
2019-04-06T00:22:26.944Z,40.11
2019-04-06T00:27:35.349Z,41.38
2019-04-06T00:32:43.750Z,41.84
2019-04-06T00:37:52.061Z,41.95
2019-04-06T00:43:00.497Z,42.68
2019-04-06T00:48:09.136Z,41.61
2019-04-06T00:53:16.187Z,43.39
2019-04-06T00:58:24.798Z,43.29
2019-04-06T01:03:33.232Z,43.69
2019-04-06T01:08:41.838Z,43.79
2019-04-06T01:13:50.981Z,47.70
2019-04-06T01:18:59.373Z,46.09
2019-04-06T01:24:07.775Z,47.08
2019-04-06T01:29:16.078Z,47.95
2019-04-06T01:34:24.661Z,48.91
2019-04-06T01:39:33.022Z,48.63
2019-04-06T01:44:41.738Z,50.95
2019-04-06T01:49:50.017Z,50.09
2019-04-06T01:54:59.221Z,48.48
2019-04-06T02:00:06.098Z,46.97
2019-04-06T02:05:14.464Z,46.96
2019-04-06T02:10:23.345Z,47.65
2019-04-06T02:15:31.689Z,48.29
2019-04-06T02:20:40.006Z,48.87
2019-04-06T02:25:48.410Z,47.68
2019-04-06T02:30:56.990Z,47.41
2019-04-06T02:36:05.555Z,45.62
2019-04-06T02:41:13.762Z,46.23
2019-04-06T02:46:22.390Z,47.41
2019-04-06T02:51:30.536Z,46.29
2019-04-06T02:56:46.695Z,45.11
2019-04-06T03:01:47.323Z,46.44
2019-04-06T03:06:55.697Z,46.16
2019-04-06T03:12:04.148Z,46.29
2019-04-06T03:17:12.851Z,46.00
2019-04-06T03:22:21.157Z,44.37
2019-04-06T03:27:29.402Z,45.12
2019-04-06T03:32:37.722Z,44.89
2019-04-06T03:37:46.220Z,44.87
2019-04-06T03:42:54.554Z,44.26
2019-04-06T03:48:02.937Z,44.45
2019-04-06T03:53:11.149Z,42.82
2019-04-06T03:58:19.521Z,42.84
2019-04-06T04:03:27.872Z,43.35
2019-04-06T04:08:36.287Z,43.90
2019-04-06T04:13:44.591Z,43.67
2019-04-06T04:18:52.909Z,42.59
2019-04-06T04:24:01.368Z,43.44
2019-04-06T04:29:09.658Z,43.67
2019-04-06T04:34:18.002Z,43.66
2019-04-06T04:39:26.333Z,42.30
2019-04-06T04:44:34.725Z,41.48
2019-04-06T04:49:43.150Z,42.63
2019-04-06T04:54:51.538Z,42.52
2019-04-06T04:59:59.977Z,42.97
2019-04-06T05:05:09.666Z,44.73
2019-04-06T05:10:15.992Z,43.66
2019-04-06T05:15:24.349Z,43.28
2019-04-06T05:20:32.702Z,43.99
2019-04-06T05:25:41.102Z,43.58
2019-04-06T05:30:50.124Z,44.22
2019-04-06T05:35:58.483Z,45.79
2019-04-06T05:41:06.842Z,46.62
2019-04-06T05:46:15.169Z,47.44
2019-04-06T05:51:23.618Z,46.89
2019-04-06T05:56:31.897Z,49.43
2019-04-06T06:01:41.044Z,50.43
2019-04-06T06:06:48.326Z,52.03
2019-04-06T06:11:56.676Z,50.81
2019-04-06T06:17:04.838Z,52.84
2019-04-06T06:22:13.285Z,55.30
2019-04-06T06:27:22.795Z,56.46
2019-04-06T06:32:31.254Z,59.33
2019-04-06T06:37:37.318Z,61.71
2019-04-06T06:42:45.795Z,60.85
2019-04-06T06:47:54.159Z,61.12
2019-04-06T06:53:03.133Z,62.06
2019-04-06T06:58:11.726Z,63.39
2019-04-06T07:03:20.702Z,62.31
2019-04-06T07:08:29.159Z,65.13
2019-04-06T07:13:38.360Z,64.89
2019-04-06T07:18:46.645Z,63.44
2019-04-06T07:23:55.254Z,65.97
2019-04-06T07:29:03.536Z,66.83
2019-04-06T07:34:12.229Z,64.24
2019-04-06T07:39:20.565Z,65.30
2019-04-06T07:44:30.217Z,67.50
2019-04-06T07:49:38.312Z,67.05
2019-04-06T07:54:46.800Z,65.50
2019-04-06T07:59:55.065Z,61.85
2019-04-06T08:05:03.734Z,65.48
2019-04-06T08:10:11.689Z,62.19
2019-04-06T08:15:20.512Z,63.89
2019-04-06T08:20:29.428Z,64.76
2019-04-06T08:25:37.893Z,64.88
2019-04-06T08:30:46.800Z,60.69
2019-04-06T08:35:53.812Z,59.24
2019-04-06T08:41:02.032Z,61.12
2019-04-06T08:46:10.118Z,62.83
2019-04-06T08:51:18.269Z,61.47
2019-04-06T08:56:26.908Z,60.87
2019-04-06T09:01:36.142Z,55.89
2019-04-06T09:06:44.261Z,56.98
2019-04-06T09:11:52.412Z,56.64
2019-04-06T09:17:00.754Z,58.75
2019-04-06T09:22:09.069Z,56.57
2019-04-06T09:27:17.253Z,56.33
2019-04-06T09:32:26.394Z,55.55
2019-04-06T09:37:34.996Z,56.37
2019-04-06T09:42:43.426Z,55.79
2019-04-06T09:47:51.674Z,54.49
2019-04-06T09:53:00.366Z,52.52
2019-04-06T09:58:08.538Z,60.85
2019-04-06T10:03:16.894Z,60.51
2019-04-06T10:08:25.215Z,54.14
2019-04-06T10:13:34.057Z,55.68
2019-04-06T10:18:42.339Z,53.84
2019-04-06T10:23:50.956Z,53.32
2019-04-06T10:28:58.845Z,54.35
2019-04-06T10:34:07.199Z,51.96
2019-04-06T10:39:15.421Z,52.43
2019-04-06T10:44:23.719Z,50.33
2019-04-06T10:49:32.191Z,53.47
2019-04-06T10:54:40.174Z,48.24
2019-04-06T10:59:59.907Z,47.12
2019-04-06T11:04:56.053Z,46.39
2019-04-06T11:10:04.342Z,44.27
2019-04-06T11:15:12.564Z,41.87
2019-04-06T11:20:20.622Z,47.59
2019-04-06T11:25:28.819Z,46.69
2019-04-06T11:30:36.823Z,44.70
2019-04-06T11:35:45.678Z,42.82
2019-04-06T11:40:54.220Z,35.39
2019-04-06T11:46:02.858Z,39.55
2019-04-06T11:51:10.297Z,37.91
2019-04-06T11:56:18.588Z,38.54
2019-04-06T12:01:27.563Z,38.61
2019-04-06T12:06:35.406Z,40.22
2019-04-06T12:11:43.946Z,38.38
2019-04-06T12:16:52.021Z,38.99
2019-04-06T12:22:00.477Z,38.94
2019-04-06T12:27:08.802Z,39.39
2019-04-06T12:32:17.990Z,41.83
2019-04-06T12:37:25.266Z,42.27
2019-04-06T12:42:33.962Z,39.52
2019-04-06T12:47:42.048Z,36.66
2019-04-06T12:52:50.440Z,33.21
2019-04-06T12:57:58.748Z,33.25
2019-04-06T13:03:07.039Z,31.02
2019-04-06T13:08:15.878Z,28.88
2019-04-06T13:13:23.982Z,29.52
2019-04-06T13:18:33.699Z,30.99
2019-04-06T13:23:41.122Z,23.59
2019-04-06T13:28:49.511Z,23.77
2019-04-06T13:33:58.206Z,20.81
2019-04-06T13:39:06.443Z,19.70
2019-04-06T13:44:14.774Z,19.53
2019-04-06T13:49:23.290Z,19.50
2019-04-06T13:54:31.445Z,19.51
2019-04-06T13:59:39.787Z,19.58
2019-04-06T14:04:48.111Z,19.86
2019-04-06T14:09:56.680Z,19.32
2019-04-06T14:15:04.705Z,19.31
2019-04-06T14:20:13.839Z,20.59
2019-04-06T14:25:23.522Z,20.70
2019-04-06T14:30:21.709Z,18.84
2019-04-06T14:35:30.405Z,19.01
2019-04-06T14:40:37.837Z,17.32
2019-04-06T14:45:45.465Z,16.93
2019-04-06T14:50:53.524Z,15.74
2019-04-06T14:56:01.634Z,15.57
2019-04-06T15:01:09.704Z,15.70
2019-04-06T15:06:18.513Z,14.83
2019-04-06T15:11:27.113Z,15.88
2019-04-06T15:16:34.542Z,18.15
2019-04-06T15:21:43.371Z,16.27
2019-04-06T15:26:51.199Z,17.51
2019-04-06T15:31:59.670Z,17.68
2019-04-06T15:37:08.458Z,19.44
2019-04-06T15:42:16.370Z,17.13
2019-04-06T15:47:24.532Z,21.93
2019-04-06T15:52:33.067Z,24.93
2019-04-06T15:57:41.212Z,30.29
2019-04-06T16:02:49.965Z,29.73
2019-04-06T16:07:58.204Z,30.48
2019-04-06T16:13:06.973Z,35.37
2019-04-06T16:18:15.511Z,32.57
2019-04-06T16:23:23.645Z,30.22
2019-04-06T16:28:32.120Z,34.58
2019-04-06T16:33:41.224Z,35.66
2019-04-06T16:38:50.689Z,30.62
2019-04-06T16:43:59.372Z,35.43
2019-04-06T16:49:07.680Z,40.27
2019-04-06T16:54:17.181Z,37.63
2019-04-06T16:59:23.047Z,36.48
2019-04-06T17:04:30.453Z,38.28
2019-04-06T17:09:38.923Z,36.03
2019-04-06T17:14:47.389Z,37.45
2019-04-06T17:19:56.269Z,40.07
2019-04-06T17:25:04.418Z,38.48
2019-04-06T17:30:12.999Z,36.99
2019-04-06T17:35:21.262Z,35.11
2019-04-06T17:40:29.883Z,37.37
2019-04-06T17:45:36.321Z,34.10
2019-04-06T17:50:44.557Z,33.31
2019-04-06T17:55:52.673Z,34.09
2019-04-06T18:06:05.746Z,35.48
2019-04-06T18:11:04.012Z,36.29
2019-04-06T18:16:19.713Z,44.17
2019-04-06T18:21:21.669Z,39.38
2019-04-06T18:26:35.548Z,40.19
2019-04-06T18:31:24.791Z,46.99
2019-04-06T18:36:32.825Z,36.90
2019-04-06T18:41:41.232Z,38.62
2019-04-06T18:46:50.803Z,38.95
2019-04-06T18:52:02.308Z,39.71
2019-04-06T18:57:00.652Z,40.33
2019-04-06T19:02:08.680Z,39.81
2019-04-06T19:07:16.859Z,39.88
2019-04-06T19:12:25.833Z,40.40
2019-04-06T19:17:33.562Z,43.15
2019-04-06T19:22:41.014Z,42.61
2019-04-06T19:27:49.047Z,43.22
2019-04-06T19:33:05.691Z,43.34
2019-04-06T19:38:04.247Z,40.02
2019-04-06T19:43:12.083Z,41.57
2019-04-06T19:48:20.066Z,39.19
2019-04-06T19:53:30.059Z,42.57
2019-04-06T19:58:40.820Z,40.63
2019-04-06T20:03:39.386Z,41.57
2019-04-06T20:08:48.697Z,41.36
2019-04-06T20:13:46.889Z,39.46
2019-04-06T20:18:57.062Z,40.85
2019-04-06T20:24:05.153Z,43.31
2019-04-06T20:29:13.243Z,40.72
2019-04-06T20:34:21.912Z,40.83
2019-04-06T20:39:29.898Z,41.25
2019-04-06T20:44:39.186Z,41.54
2019-04-06T20:49:50.140Z,42.02
2019-04-06T20:54:48.683Z,43.22
2019-04-06T20:59:58.456Z,41.92
2019-04-06T21:05:05.633Z,40.99
2019-04-06T21:10:14.031Z,41.99
2019-04-06T21:15:22.739Z,42.26
2019-04-06T21:20:31.421Z,42.37
2019-04-06T21:25:38.969Z,43.58
2019-04-06T21:30:47.870Z,44.61
2019-04-06T21:35:55.940Z,42.72
2019-04-06T21:41:05.042Z,43.93
2019-04-06T21:46:12.400Z,45.23
2019-04-06T21:51:20.568Z,45.55
2019-04-06T21:56:29.154Z,44.37
2019-04-06T22:01:38.042Z,45.89
2019-04-06T22:06:47.298Z,46.72
2019-04-06T22:11:55.088Z,45.37
2019-04-06T22:17:04.008Z,44.44
2019-04-06T22:22:12.951Z,42.69
2019-04-06T22:27:22.316Z,44.17
2019-04-06T22:32:30.116Z,43.89
2019-04-06T22:37:37.558Z,45.94
2019-04-06T22:42:46.637Z,48.05
2019-04-06T22:47:56.547Z,44.13
2019-04-06T22:52:54.685Z,44.71
2019-04-06T22:58:03.888Z,44.85
2019-04-06T23:03:12.493Z,44.05
2019-04-06T23:08:21.213Z,42.92
2019-04-06T23:13:28.966Z,43.00
2019-04-06T23:18:36.722Z,41.82
2019-04-06T23:23:45.215Z,45.07
2019-04-06T23:28:52.773Z,47.36
2019-04-06T23:34:00.230Z,44.11
2019-04-06T23:39:09.220Z,43.30
2019-04-06T23:44:16.878Z,45.06
2019-04-06T23:49:25.690Z,43.65
2019-04-06T23:54:33.409Z,42.81
2019-04-06T23:59:43.046Z,41.78
